createdAt,value
2018-06-27T00:00:27.649Z,13.53
2018-06-27T00:02:56.695Z,13.55
2018-06-27T00:05:25.718Z,13.60
2018-06-27T00:07:54.731Z,13.56
2018-06-27T00:10:23.812Z,13.46
2018-06-27T00:12:52.797Z,13.47
2018-06-27T00:15:21.823Z,13.55
2018-06-27T00:17:50.892Z,13.46
2018-06-27T00:20:20.013Z,13.29
2018-06-27T00:22:49.045Z,13.34
2018-06-27T00:25:18.065Z,13.36
2018-06-27T00:27:47.074Z,13.27
2018-06-27T00:30:16.133Z,13.28
2018-06-27T00:32:45.157Z,13.26
2018-06-27T00:35:14.197Z,13.29
2018-06-27T00:37:43.444Z,13.27
2018-06-27T00:40:12.487Z,13.41
2018-06-27T00:42:41.581Z,13.47
2018-06-27T00:45:10.613Z,13.35
2018-06-27T00:47:39.673Z,13.34
2018-06-27T00:50:08.915Z,13.18
2018-06-27T00:52:37.926Z,13.19
2018-06-27T00:55:07.224Z,13.29
2018-06-27T00:57:36.296Z,13.38
2018-06-27T01:00:05.553Z,13.38
2018-06-27T01:02:34.594Z,13.35
2018-06-27T01:05:03.621Z,13.31
2018-06-27T01:07:32.640Z,13.22
2018-06-27T01:10:11.614Z,13.14
2018-06-27T01:12:40.842Z,13.17
2018-06-27T01:15:09.852Z,13.09
2018-06-27T01:17:38.839Z,13.13
2018-06-27T01:20:08.287Z,12.98
2018-06-27T01:22:37.433Z,12.88
2018-06-27T01:25:06.505Z,12.92
2018-06-27T01:27:35.545Z,12.91
2018-06-27T01:30:04.723Z,12.96
2018-06-27T01:32:33.857Z,12.86
2018-06-27T01:35:02.941Z,12.74
2018-06-27T01:37:31.955Z,12.78
2018-06-27T01:40:00.897Z,12.71
2018-06-27T01:42:29.929Z,12.85
2018-06-27T01:44:58.996Z,12.86
2018-06-27T01:47:28.994Z,12.99
2018-06-27T01:49:58.253Z,13.03
2018-06-27T01:52:27.239Z,12.99
2018-06-27T01:54:56.246Z,13.05
2018-06-27T01:57:25.316Z,13.05
2018-06-27T01:59:54.313Z,13.07
2018-06-27T02:02:23.405Z,12.94
2018-06-27T02:04:52.477Z,12.90
2018-06-27T02:07:21.496Z,12.85
2018-06-27T02:09:50.478Z,13.08
2018-06-27T02:12:19.462Z,13.01
2018-06-27T02:14:48.449Z,12.99
2018-06-27T02:17:17.433Z,13.03
2018-06-27T02:19:47.175Z,12.90
2018-06-27T02:22:16.232Z,12.94
2018-06-27T02:24:45.265Z,12.99
2018-06-27T02:27:14.269Z,12.94
2018-06-27T02:29:43.281Z,13.04
2018-06-27T02:32:12.282Z,13.02
2018-06-27T02:34:41.313Z,13.12
2018-06-27T02:37:10.330Z,13.05
2018-06-27T02:39:39.416Z,13.07
2018-06-27T02:42:08.621Z,13.07
2018-06-27T02:44:37.681Z,13.04
2018-06-27T02:47:06.696Z,13.14
2018-06-27T02:49:35.898Z,13.19
2018-06-27T02:52:05.527Z,13.19
2018-06-27T02:54:34.524Z,13.25
2018-06-27T02:57:03.503Z,13.31
2018-06-27T02:59:32.549Z,13.41
2018-06-27T03:02:01.675Z,13.20
2018-06-27T03:04:30.705Z,13.31
2018-06-27T03:06:59.668Z,13.47
2018-06-27T03:09:28.915Z,13.27
2018-06-27T03:11:57.949Z,13.49
2018-06-27T03:14:26.944Z,13.41
2018-06-27T03:16:55.953Z,13.47
2018-06-27T03:19:25.037Z,13.23
2018-06-27T03:21:54.070Z,13.43
2018-06-27T03:24:23.191Z,13.38
2018-06-27T03:26:52.239Z,13.48
2018-06-27T03:29:21.212Z,13.59
2018-06-27T03:31:50.233Z,13.59
2018-06-27T03:34:19.253Z,13.37
2018-06-27T03:36:48.257Z,13.53
2018-06-27T03:39:17.282Z,13.48
2018-06-27T03:41:46.268Z,13.54
2018-06-27T03:44:15.268Z,13.60
2018-06-27T03:46:44.766Z,13.65
2018-06-27T03:49:13.803Z,13.48
2018-06-27T03:51:42.808Z,13.71
2018-06-27T03:54:11.806Z,13.56
2018-06-27T03:56:40.888Z,13.68
2018-06-27T03:59:09.929Z,13.77
2018-06-27T04:01:38.968Z,13.76
2018-06-27T04:04:08.001Z,13.76
2018-06-27T04:06:37.008Z,13.84
2018-06-27T04:09:09.672Z,13.91
2018-06-27T04:11:39.025Z,13.83
2018-06-27T04:14:08.157Z,13.97
2018-06-27T04:16:37.143Z,14.09
2018-06-27T04:19:06.223Z,13.96
2018-06-27T04:21:35.569Z,14.05
2018-06-27T04:24:04.658Z,14.08
2018-06-27T04:26:33.702Z,14.21
2018-06-27T04:29:02.742Z,14.14
2018-06-27T04:31:36.403Z,14.35
2018-06-27T04:34:05.680Z,14.38
2018-06-27T04:36:35.317Z,14.38
2018-06-27T04:39:05.464Z,14.40
2018-06-27T04:41:34.572Z,14.41
2018-06-27T04:44:03.846Z,14.38
2018-06-27T04:46:33.000Z,14.58
2018-06-27T04:49:01.992Z,14.65
2018-06-27T04:51:31.179Z,14.72
2018-06-27T04:54:00.469Z,14.77
2018-06-27T04:56:29.559Z,14.70
2018-06-27T04:58:58.630Z,14.65
2018-06-27T05:01:27.751Z,14.64
2018-06-27T05:03:57.158Z,14.67
2018-06-27T05:06:26.209Z,14.75
2018-06-27T05:08:55.271Z,14.79
2018-06-27T05:11:25.039Z,14.94
2018-06-27T05:13:54.254Z,15.01
2018-06-27T05:16:23.365Z,15.09
2018-06-27T05:18:52.426Z,15.13
2018-06-27T05:21:21.510Z,15.66
2018-06-27T05:23:50.879Z,16.27
2018-06-27T05:26:19.904Z,16.56
2018-06-27T05:28:48.959Z,16.59
2018-06-27T05:31:17.950Z,16.79
2018-06-27T05:33:47.199Z,16.66
2018-06-27T05:36:16.819Z,16.61
2018-06-27T05:38:45.897Z,16.72
2018-06-27T05:41:14.990Z,17.36
2018-06-27T05:43:43.989Z,19.35
2018-06-27T05:46:13.088Z,19.69
2018-06-27T05:48:42.124Z,20.17
2018-06-27T05:51:11.907Z,19.94
2018-06-27T05:53:40.893Z,19.33
2018-06-27T05:56:09.926Z,20.06
2018-06-27T05:58:39.018Z,19.22
2018-06-27T06:01:08.087Z,19.75
2018-06-27T06:03:37.154Z,19.44
2018-06-27T06:06:06.359Z,20.18
2018-06-27T06:08:35.530Z,21.60
2018-06-27T06:11:04.583Z,22.46
2018-06-27T06:13:33.644Z,23.24
2018-06-27T06:16:02.816Z,24.05
2018-06-27T06:18:31.933Z,25.12
2018-06-27T06:21:00.953Z,25.21
2018-06-27T06:23:30.122Z,23.49
2018-06-27T06:25:59.116Z,25.62
2018-06-27T06:28:28.163Z,26.20
2018-06-27T06:30:57.255Z,25.90
2018-06-27T06:33:26.272Z,24.92
2018-06-27T06:35:55.304Z,24.64
2018-06-27T06:38:24.351Z,25.50
2018-06-27T06:40:53.370Z,26.13
2018-06-27T06:43:22.433Z,27.45
2018-06-27T06:45:51.392Z,25.37
2018-06-27T06:48:20.500Z,24.53
2018-06-27T06:50:49.570Z,25.43
2018-06-27T06:53:18.684Z,24.05
2018-06-27T06:55:47.783Z,23.16
2018-06-27T06:58:16.899Z,23.12
2018-06-27T07:00:45.903Z,23.96
2018-06-27T07:03:14.920Z,24.10
2018-06-27T07:05:43.969Z,23.37
2018-06-27T07:08:13.315Z,24.14
2018-06-27T07:10:42.353Z,24.29
2018-06-27T07:13:11.487Z,24.38
2018-06-27T07:15:40.509Z,25.25
2018-06-27T07:18:09.600Z,25.10
2018-06-27T07:20:38.607Z,25.57
2018-06-27T07:23:07.665Z,26.68
2018-06-27T07:25:36.718Z,26.54
2018-06-27T07:28:05.781Z,28.49
2018-06-27T07:30:34.844Z,28.62
2018-06-27T07:33:03.844Z,27.82
2018-06-27T07:35:33.317Z,28.39
2018-06-27T07:38:02.329Z,26.80
2018-06-27T07:40:31.436Z,27.54
2018-06-27T07:43:00.522Z,27.18
2018-06-27T07:45:29.484Z,27.85
2018-06-27T07:47:58.551Z,28.11
2018-06-27T07:50:27.664Z,27.04
2018-06-27T07:52:56.684Z,26.53
2018-06-27T07:55:25.684Z,27.06
2018-06-27T07:57:54.661Z,26.71
2018-06-27T08:00:23.669Z,28.71
2018-06-27T08:02:52.646Z,28.35
2018-06-27T08:05:21.651Z,25.96
2018-06-27T08:07:50.625Z,24.24
2018-06-27T08:10:19.751Z,23.90
2018-06-27T08:12:48.824Z,23.76
2018-06-27T08:15:17.858Z,23.22
2018-06-27T08:17:46.899Z,22.66
2018-06-27T08:20:16.016Z,22.08
2018-06-27T08:22:45.144Z,21.74
2018-06-27T08:25:14.207Z,21.33
2018-06-27T08:27:43.217Z,22.75
2018-06-27T08:30:12.344Z,23.92
2018-06-27T08:32:41.328Z,24.34
2018-06-27T08:35:10.512Z,24.88
2018-06-27T08:37:39.528Z,25.01
2018-06-27T08:40:08.579Z,25.72
2018-06-27T08:42:37.675Z,27.42
2018-06-27T08:45:07.022Z,27.21
2018-06-27T08:47:36.061Z,27.43
2018-06-27T08:50:05.185Z,27.74
2018-06-27T08:52:34.159Z,25.71
2018-06-27T08:55:03.142Z,24.94
2018-06-27T08:57:32.134Z,24.33
2018-06-27T09:00:01.184Z,24.58
2018-06-27T09:02:30.227Z,24.80
2018-06-27T09:04:59.284Z,24.59
2018-06-27T09:07:28.285Z,24.13
2018-06-27T09:09:57.316Z,24.66
2018-06-27T09:12:26.380Z,25.74
2018-06-27T09:14:55.341Z,26.22
2018-06-27T09:17:24.335Z,27.29
2018-06-27T09:19:53.370Z,27.32
2018-06-27T09:22:22.363Z,26.56
2018-06-27T09:24:51.392Z,26.87
2018-06-27T09:27:20.430Z,26.36
2018-06-27T09:29:49.428Z,26.79
2018-06-27T09:32:18.498Z,25.09
2018-06-27T09:34:47.481Z,25.28
2018-06-27T09:37:16.557Z,25.60
2018-06-27T09:39:45.554Z,25.53
2018-06-27T09:42:14.568Z,26.17
2018-06-27T09:44:43.648Z,26.74
2018-06-27T09:47:13.717Z,26.02
2018-06-27T09:49:43.223Z,25.53
2018-06-27T09:52:12.314Z,25.98
2018-06-27T09:54:42.358Z,25.82
2018-06-27T09:57:13.305Z,25.37
2018-06-27T09:59:43.014Z,24.31
2018-06-27T10:02:12.933Z,24.40
2018-06-27T10:04:42.046Z,25.07
2018-06-27T10:07:11.090Z,25.09
2018-06-27T10:09:40.145Z,24.88
2018-06-27T10:12:09.155Z,25.40
2018-06-27T10:14:38.280Z,25.18
2018-06-27T10:17:07.473Z,25.18
2018-06-27T10:19:36.582Z,25.18
2018-06-27T10:22:05.642Z,25.29
2018-06-27T10:24:34.633Z,25.37
2018-06-27T10:27:03.662Z,25.40
2018-06-27T10:29:32.934Z,25.30
2018-06-27T10:32:01.950Z,25.39
2018-06-27T10:34:31.013Z,25.54
2018-06-27T10:37:00.091Z,25.37
2018-06-27T10:39:29.213Z,25.47
2018-06-27T10:41:58.207Z,25.52
2018-06-27T10:44:27.242Z,25.55
2018-06-27T10:46:56.253Z,25.60
2018-06-27T10:49:25.277Z,25.51
2018-06-27T10:51:54.281Z,25.79
2018-06-27T10:54:23.274Z,25.94
2018-06-27T10:56:52.411Z,25.64
2018-06-27T10:59:21.517Z,25.69
2018-06-27T11:01:50.581Z,25.55
2018-06-27T11:04:19.572Z,25.58
2018-06-27T11:06:48.595Z,25.17
2018-06-27T11:09:17.767Z,25.62
2018-06-27T11:11:46.868Z,25.59
2018-06-27T11:14:15.931Z,25.42
2018-06-27T11:16:45.035Z,25.18
2018-06-27T11:19:14.142Z,25.54
2018-06-27T11:21:43.201Z,25.12
2018-06-27T11:24:12.239Z,25.43
2018-06-27T11:26:41.348Z,25.65
2018-06-27T11:29:10.427Z,25.86
2018-06-27T11:31:39.479Z,25.99
2018-06-27T11:34:08.702Z,25.99
2018-06-27T11:36:37.791Z,25.51
2018-06-27T11:39:10.150Z,25.53
2018-06-27T11:41:41.431Z,25.84
2018-06-27T11:44:10.716Z,25.91
2018-06-27T11:46:39.796Z,25.63
2018-06-27T11:49:08.989Z,25.63
2018-06-27T11:51:38.133Z,25.64
2018-06-27T11:54:07.184Z,25.60
2018-06-27T11:56:36.264Z,25.88
2018-06-27T11:59:05.425Z,25.58
2018-06-27T12:01:34.546Z,25.23
2018-06-27T12:04:03.649Z,25.38
2018-06-27T12:06:32.773Z,25.40
2018-06-27T12:09:01.849Z,24.95
2018-06-27T12:11:30.938Z,25.42
2018-06-27T12:13:59.947Z,25.48
2018-06-27T12:16:28.961Z,25.34
2018-06-27T12:18:57.962Z,25.39
2018-06-27T12:21:27.111Z,25.32
2018-06-27T12:23:56.482Z,25.79
2018-06-27T12:26:25.641Z,25.99
2018-06-27T12:28:54.844Z,26.17
2018-06-27T12:31:24.096Z,26.01
2018-06-27T12:33:53.173Z,25.64
2018-06-27T12:36:22.279Z,25.50
2018-06-27T12:38:51.385Z,25.23
2018-06-27T12:41:20.371Z,25.35
2018-06-27T12:43:49.485Z,25.77
2018-06-27T12:46:18.435Z,26.24
2018-06-27T12:48:47.605Z,26.25
2018-06-27T12:51:16.611Z,25.68
2018-06-27T12:53:45.641Z,25.66
2018-06-27T12:56:14.642Z,25.86
2018-06-27T12:58:43.665Z,26.14
2018-06-27T13:01:12.654Z,26.29
2018-06-27T13:03:41.633Z,26.49
2018-06-27T13:06:10.672Z,26.22
2018-06-27T13:08:39.764Z,26.15
2018-06-27T13:11:08.811Z,25.79
2018-06-27T13:13:37.809Z,26.02
2018-06-27T13:16:06.901Z,26.25
2018-06-27T13:18:35.910Z,25.92
2018-06-27T13:21:04.991Z,25.73
2018-06-27T13:23:34.540Z,25.66
2018-06-27T13:26:03.671Z,25.77
2018-06-27T13:28:32.816Z,25.94
2018-06-27T13:31:01.889Z,26.22
2018-06-27T13:33:30.927Z,26.18
2018-06-27T13:36:00.027Z,25.31
2018-06-27T13:38:29.145Z,24.63
2018-06-27T13:40:58.233Z,24.19
2018-06-27T13:43:27.377Z,24.00
2018-06-27T13:45:56.489Z,24.28
2018-06-27T13:48:25.573Z,24.69
2018-06-27T13:50:54.621Z,24.80
2018-06-27T13:53:23.691Z,24.55
2018-06-27T13:55:52.778Z,24.64
2018-06-27T13:58:21.832Z,25.05
2018-06-27T14:00:50.892Z,25.35
2018-06-27T14:03:19.931Z,25.77
2018-06-27T14:05:48.976Z,25.99
2018-06-27T14:08:18.017Z,26.03
2018-06-27T14:10:47.044Z,26.06
2018-06-27T14:13:16.153Z,25.64
2018-06-27T14:15:45.174Z,25.38
2018-06-27T14:18:14.398Z,25.06
2018-06-27T14:20:43.439Z,24.85
2018-06-27T14:23:12.513Z,25.09
2018-06-27T14:25:41.536Z,24.55
2018-06-27T14:28:10.513Z,24.11
2018-06-27T14:30:39.557Z,24.38
2018-06-27T14:33:08.616Z,24.73
2018-06-27T14:35:37.703Z,25.03
2018-06-27T14:38:06.761Z,25.19
2018-06-27T14:40:35.966Z,25.21
2018-06-27T14:43:05.041Z,24.37
2018-06-27T14:45:34.176Z,24.21
2018-06-27T14:48:03.581Z,24.18
2018-06-27T14:50:32.598Z,23.95
2018-06-27T14:53:01.632Z,24.03
2018-06-27T14:55:30.721Z,24.37
2018-06-27T14:57:59.803Z,24.55
2018-06-27T15:00:29.030Z,24.83
2018-06-27T15:02:58.058Z,24.88
2018-06-27T15:05:27.111Z,24.88
2018-06-27T15:07:56.180Z,24.75
2018-06-27T15:10:25.348Z,24.90
2018-06-27T15:12:54.429Z,24.90
2018-06-27T15:15:23.452Z,24.79
2018-06-27T15:17:53.187Z,24.78
2018-06-27T15:20:22.354Z,24.82
2018-06-27T15:22:51.408Z,24.90
2018-06-27T15:25:20.472Z,24.88
2018-06-27T15:27:49.590Z,24.71
2018-06-27T15:30:18.663Z,24.65
2018-06-27T15:32:47.700Z,24.69
2018-06-27T15:35:16.828Z,24.47
2018-06-27T15:37:46.703Z,24.22
2018-06-27T15:40:15.760Z,23.95
2018-06-27T15:42:44.763Z,23.87
2018-06-27T15:45:13.772Z,23.93
2018-06-27T15:47:42.791Z,23.88
2018-06-27T15:50:11.824Z,23.81
2018-06-27T15:52:40.852Z,23.71
2018-06-27T15:55:10.111Z,23.62
2018-06-27T15:57:39.093Z,23.62
2018-06-27T16:00:08.149Z,23.52
2018-06-27T16:02:37.201Z,23.49
2018-06-27T16:05:06.277Z,23.56
2018-06-27T16:07:35.270Z,23.37
2018-06-27T16:10:04.434Z,23.41
2018-06-27T16:12:33.411Z,23.33
2018-06-27T16:15:02.527Z,23.32
2018-06-27T16:17:31.918Z,23.15
2018-06-27T16:20:01.049Z,23.04
2018-06-27T16:22:30.077Z,23.08
2018-06-27T16:24:59.153Z,23.08
2018-06-27T16:27:28.268Z,23.04
2018-06-27T16:29:57.385Z,22.87
2018-06-27T16:32:26.429Z,22.77
2018-06-27T16:34:55.553Z,22.68
2018-06-27T16:37:25.541Z,22.74
2018-06-27T16:40:00.683Z,22.74
2018-06-27T16:42:37.125Z,22.69
2018-06-27T16:45:12.062Z,22.56
2018-06-27T16:47:47.484Z,22.65
2018-06-27T16:50:23.282Z,22.52
2018-06-27T16:53:00.754Z,22.49
2018-06-27T16:55:36.948Z,22.33
2018-06-27T16:58:13.585Z,22.17
2018-06-27T17:00:48.828Z,22.19
2018-06-27T17:03:24.681Z,22.20
2018-06-27T17:06:00.309Z,22.28
2018-06-27T17:08:36.187Z,22.14
2018-06-27T17:11:13.700Z,22.12
2018-06-27T17:13:46.850Z,22.09
2018-06-27T17:16:21.357Z,21.98
2018-06-27T17:18:56.779Z,21.89
2018-06-27T17:21:32.118Z,21.89
2018-06-27T17:24:07.975Z,21.82
2018-06-27T17:26:43.347Z,21.77
2018-06-27T17:29:20.392Z,21.78
2018-06-27T17:31:56.452Z,21.65
2018-06-27T17:34:31.267Z,21.67
2018-06-27T17:37:08.090Z,21.55
2018-06-27T17:39:40.383Z,21.54
2018-06-27T17:42:16.246Z,21.51
2018-06-27T17:44:55.390Z,21.51
2018-06-27T17:47:36.896Z,21.50
2018-06-27T17:50:16.192Z,21.48
2018-06-27T17:52:55.623Z,21.47
2018-06-27T17:55:34.873Z,21.35
2018-06-27T17:58:12.460Z,21.25
2018-06-27T18:00:48.404Z,21.19
2018-06-27T18:03:25.910Z,21.20
2018-06-27T18:06:02.787Z,21.18
2018-06-27T18:08:41.929Z,21.11
2018-06-27T18:11:17.803Z,21.03
2018-06-27T18:13:54.583Z,20.97
2018-06-27T18:16:29.515Z,20.95
2018-06-27T18:19:05.803Z,20.93
2018-06-27T18:21:37.819Z,20.90
2018-06-27T18:24:14.098Z,20.89
2018-06-27T18:26:43.361Z,20.75
2018-06-27T18:29:12.419Z,20.68
2018-06-27T18:31:41.464Z,20.71
2018-06-27T18:34:10.539Z,20.69
2018-06-27T18:36:39.589Z,20.55
2018-06-27T18:39:10.409Z,20.48
2018-06-27T18:41:39.659Z,20.34
2018-06-27T18:44:08.808Z,20.34
2018-06-27T18:46:38.661Z,20.33
2018-06-27T18:49:13.877Z,20.31
2018-06-27T18:51:46.500Z,20.19
2018-06-27T18:54:17.583Z,20.18
2018-06-27T18:56:46.899Z,20.17
2018-06-27T18:59:16.036Z,20.10
2018-06-27T19:01:48.317Z,19.99
2018-06-27T19:04:17.642Z,19.97
2018-06-27T19:06:46.685Z,19.88
2018-06-27T19:09:15.727Z,19.81
2018-06-27T19:11:52.344Z,19.77
2018-06-27T19:14:21.703Z,19.77
2018-06-27T19:16:50.707Z,19.68
2018-06-27T19:19:19.818Z,19.57
2018-06-27T19:21:48.866Z,19.54
2018-06-27T19:24:17.947Z,19.50
2018-06-27T19:26:47.225Z,19.45
2018-06-27T19:29:16.531Z,19.43
2018-06-27T19:31:45.738Z,19.31
2018-06-27T19:34:20.325Z,19.23
2018-06-27T19:36:49.525Z,19.13
2018-06-27T19:39:18.521Z,19.09
2018-06-27T19:41:47.588Z,19.00
2018-06-27T19:44:16.629Z,18.92
2018-06-27T19:46:45.658Z,18.83
2018-06-27T19:49:14.753Z,18.78
2018-06-27T19:51:43.803Z,18.68
2018-06-27T19:54:12.913Z,18.56
2018-06-27T19:56:41.936Z,18.49
2018-06-27T19:59:12.674Z,18.56
2018-06-27T20:01:42.267Z,18.36
2018-06-27T20:04:11.421Z,18.35
2018-06-27T20:06:40.485Z,18.30
2018-06-27T20:09:10.864Z,18.21
2018-06-27T20:11:41.307Z,18.09
2018-06-27T20:14:10.486Z,18.02
2018-06-27T20:16:39.670Z,18.00
2018-06-27T20:19:08.789Z,17.91
2018-06-27T20:21:37.900Z,17.90
2018-06-27T20:24:07.219Z,17.81
2018-06-27T20:26:38.341Z,17.76
2018-06-27T20:29:07.716Z,17.67
2018-06-27T20:31:36.985Z,17.59
2018-06-27T20:34:06.166Z,17.37
2018-06-27T20:36:35.235Z,17.45
2018-06-27T20:39:06.407Z,17.31
2018-06-27T20:41:35.454Z,17.29
2018-06-27T20:44:05.775Z,17.22
2018-06-27T20:46:34.974Z,17.18
2018-06-27T20:49:04.123Z,17.14
2018-06-27T20:51:33.858Z,17.15
2018-06-27T20:54:03.070Z,17.07
2018-06-27T20:56:32.967Z,17.03
2018-06-27T20:59:02.042Z,17.03
2018-06-27T21:01:31.115Z,16.83
2018-06-27T21:04:00.150Z,16.85
2018-06-27T21:06:29.234Z,16.85
2018-06-27T21:08:58.329Z,16.76
2018-06-27T21:11:27.434Z,16.71
2018-06-27T21:13:56.477Z,16.63
2018-06-27T21:16:25.497Z,16.51
2018-06-27T21:18:54.616Z,16.46
2018-06-27T21:21:23.682Z,16.36
2018-06-27T21:23:53.012Z,16.33
2018-06-27T21:26:22.160Z,16.25
2018-06-27T21:28:51.179Z,16.25
2018-06-27T21:31:20.259Z,16.20
2018-06-27T21:33:49.296Z,16.22
2018-06-27T21:36:18.342Z,16.29
2018-06-27T21:38:47.392Z,16.34
2018-06-27T21:41:16.449Z,16.33
2018-06-27T21:43:45.530Z,16.27
2018-06-27T21:46:14.591Z,16.17
2018-06-27T21:48:43.574Z,16.18
2018-06-27T21:51:12.689Z,16.07
2018-06-27T21:53:41.674Z,16.09
2018-06-27T21:56:10.845Z,16.01
2018-06-27T21:58:39.857Z,16.00
2018-06-27T22:01:08.930Z,15.94
2018-06-27T22:03:38.034Z,15.94
2018-06-27T22:06:07.070Z,15.88
2018-06-27T22:08:36.224Z,15.87
2018-06-27T22:11:05.329Z,15.86
2018-06-27T22:13:34.329Z,15.82
2018-06-27T22:16:03.392Z,15.82
2018-06-27T22:18:32.518Z,15.78
2018-06-27T22:21:01.568Z,15.74
2018-06-27T22:23:30.669Z,15.68
2018-06-27T22:25:59.710Z,15.67
2018-06-27T22:28:28.796Z,15.69
2018-06-27T22:30:57.779Z,15.63
2018-06-27T22:33:26.875Z,15.61
2018-06-27T22:35:55.993Z,15.61
2018-06-27T22:38:25.102Z,15.58
2018-06-27T22:40:54.254Z,15.57
2018-06-27T22:43:23.354Z,15.54
2018-06-27T22:45:52.402Z,15.52
2018-06-27T22:48:21.470Z,15.52
2018-06-27T22:50:50.545Z,15.53
2018-06-27T22:53:19.626Z,15.50
2018-06-27T22:55:48.673Z,15.50
2018-06-27T22:58:17.743Z,15.49
2018-06-27T23:00:46.764Z,15.46
2018-06-27T23:03:15.825Z,15.45
2018-06-27T23:05:44.968Z,15.48
2018-06-27T23:08:14.536Z,15.43
2018-06-27T23:10:43.553Z,15.40
2018-06-27T23:13:12.929Z,15.38
2018-06-27T23:15:42.013Z,15.34
2018-06-27T23:18:11.103Z,15.32
2018-06-27T23:20:40.202Z,15.27
2018-06-27T23:23:09.298Z,15.21
2018-06-27T23:25:38.404Z,15.13
2018-06-27T23:28:07.401Z,14.98
2018-06-27T23:30:36.457Z,14.95
2018-06-27T23:33:05.557Z,14.85
2018-06-27T23:35:34.634Z,14.63
2018-06-27T23:38:11.340Z,14.57
2018-06-27T23:40:40.593Z,14.48
2018-06-27T23:43:09.655Z,14.45
2018-06-27T23:45:38.641Z,14.57
2018-06-27T23:48:07.713Z,14.60
2018-06-27T23:50:36.883Z,14.56
2018-06-27T23:53:06.117Z,14.66
2018-06-27T23:55:35.176Z,14.62
2018-06-27T23:58:04.287Z,14.53
